Terminal Aerodrome Forecast
Issued by NWS Caribou, ME

Home | Current Version | Previous Version | Text Only | Print | Product List | Glossary On
Versions: 1 2 3 4 5 6 7 8 9 10 11 12 13 14 15 16
000
FTUS41 KCAR 231400 AAB
TAFBGR
TAF AMD
KBGR 231416Z 2314/2412 16005KT 6SM BR OVC010
     FM231700 02007KT P6SM BKN015 OVC020
     FM232300 34010KT 5SM -RA BR OVC008=

USA.gov is the U.S. government's official web portal to all federal, state and local government web resources and services.